createdAt,value
2018-01-27T00:01:12.326Z,1.35
2018-01-27T00:03:41.271Z,1.35
2018-01-27T00:06:09.441Z,1.34
2018-01-27T00:08:37.614Z,1.37
2018-01-27T00:11:05.790Z,1.49
2018-01-27T00:13:33.972Z,1.51
2018-01-27T00:16:02.150Z,1.56
2018-01-27T00:18:31.083Z,1.57
2018-01-27T00:21:00.026Z,1.56
2018-01-27T00:23:28.190Z,1.62
2018-01-27T00:25:56.366Z,1.64
2018-01-27T00:28:24.537Z,1.71
2018-01-27T00:30:52.698Z,1.76
2018-01-27T00:33:20.876Z,1.73
2018-01-27T00:35:49.058Z,1.83
2018-01-27T00:38:17.223Z,1.77
2018-01-27T00:40:45.381Z,1.66
2018-01-27T00:43:14.319Z,1.66
2018-01-27T00:45:42.496Z,1.62
2018-01-27T00:48:10.674Z,1.70
2018-01-27T00:50:38.835Z,1.67
2018-01-27T00:53:07.006Z,1.72
2018-01-27T00:55:35.182Z,1.76
2018-01-27T00:58:03.346Z,1.79
2018-01-27T01:00:31.550Z,1.83
2018-01-27T01:03:00.492Z,1.82
2018-01-27T01:05:28.657Z,1.76
2018-01-27T01:07:57.602Z,1.68
2018-01-27T01:10:25.790Z,1.63
2018-01-27T01:12:53.957Z,1.60
2018-01-27T01:15:22.130Z,1.59
2018-01-27T01:17:50.304Z,1.61
2018-01-27T01:20:18.479Z,1.52
2018-01-27T01:22:46.642Z,1.50
2018-01-27T01:25:14.807Z,1.51
2018-01-27T01:27:42.981Z,1.59
2018-01-27T01:30:11.178Z,1.50
2018-01-27T01:32:39.345Z,1.61
2018-01-27T01:35:07.519Z,1.52
2018-01-27T01:37:35.677Z,1.43
2018-01-27T01:40:03.856Z,1.41
2018-01-27T01:42:37.581Z,1.56
2018-01-27T01:45:06.523Z,1.48
2018-01-27T01:47:34.682Z,1.49
2018-01-27T01:50:03.618Z,1.40
2018-01-27T01:52:31.789Z,1.37
2018-01-27T01:54:59.948Z,1.33
2018-01-27T01:57:28.138Z,1.35
2018-01-27T01:59:56.325Z,1.29
2018-01-27T02:02:24.486Z,1.30
2018-01-27T02:04:52.660Z,1.27
2018-01-27T02:07:20.814Z,1.34
2018-01-27T02:09:49.005Z,1.34
2018-01-27T02:12:17.163Z,1.35
2018-01-27T02:14:45.356Z,1.34
2018-01-27T02:17:13.548Z,1.41
2018-01-27T02:19:41.714Z,1.34
2018-01-27T02:22:09.905Z,1.29
2018-01-27T02:24:38.086Z,1.22
2018-01-27T02:27:06.248Z,1.27
2018-01-27T02:29:34.409Z,1.27
2018-01-27T02:32:02.585Z,1.34
2018-01-27T02:34:30.784Z,1.34
2018-01-27T02:36:58.948Z,1.41
2018-01-27T02:39:27.108Z,1.40
2018-01-27T02:41:55.290Z,1.38
2018-01-27T02:44:23.496Z,1.35
2018-01-27T02:46:51.666Z,1.34
2018-01-27T02:49:19.822Z,1.35
2018-01-27T02:51:47.989Z,1.38
2018-01-27T02:54:16.156Z,1.35
2018-01-27T02:56:44.356Z,1.36
2018-01-27T02:59:12.554Z,1.40
2018-01-27T03:01:40.725Z,1.42
2018-01-27T03:04:08.893Z,1.41
2018-01-27T03:06:37.059Z,1.37
2018-01-27T03:09:05.281Z,1.36
2018-01-27T03:11:33.446Z,1.41
2018-01-27T03:14:02.377Z,1.35
2018-01-27T03:16:30.547Z,1.36
2018-01-27T03:18:58.723Z,1.42
2018-01-27T03:21:26.900Z,1.49
2018-01-27T03:23:55.058Z,1.45
2018-01-27T03:26:23.234Z,1.46
2018-01-27T03:28:51.407Z,1.44
2018-01-27T03:31:19.597Z,1.48
2018-01-27T03:33:47.764Z,1.41
2018-01-27T03:36:15.926Z,1.45
2018-01-27T03:38:44.089Z,1.38
2018-01-27T03:41:12.262Z,1.37
2018-01-27T03:43:40.427Z,1.43
2018-01-27T03:46:09.365Z,1.40
2018-01-27T03:48:37.530Z,1.36
2018-01-27T03:51:05.709Z,1.40
2018-01-27T03:53:33.888Z,1.52
2018-01-27T03:56:02.051Z,1.47
2018-01-27T03:58:30.223Z,1.47
2018-01-27T04:00:58.388Z,1.56
2018-01-27T04:03:26.570Z,1.44
2018-01-27T04:05:54.729Z,1.41
2018-01-27T04:08:22.889Z,1.43
2018-01-27T04:10:51.824Z,1.39
2018-01-27T04:13:19.998Z,1.42
2018-01-27T04:15:48.164Z,1.50
2018-01-27T04:18:16.337Z,1.46
2018-01-27T04:20:44.520Z,1.54
2018-01-27T04:23:12.696Z,1.54
2018-01-27T04:25:40.863Z,1.41
2018-01-27T04:28:09.042Z,1.45
2018-01-27T04:30:37.219Z,1.32
2018-01-27T04:33:05.391Z,1.29
2018-01-27T04:35:33.582Z,1.27
2018-01-27T04:38:01.745Z,1.30
2018-01-27T04:40:29.927Z,1.29
2018-01-27T04:42:58.125Z,1.29
2018-01-27T04:45:26.305Z,1.41
2018-01-27T04:47:54.461Z,1.46
2018-01-27T04:50:22.622Z,1.46
2018-01-27T04:52:50.783Z,1.33
2018-01-27T04:55:18.957Z,1.30
2018-01-27T04:57:47.141Z,1.24
2018-01-27T05:00:15.317Z,1.30
2018-01-27T05:02:43.471Z,1.24
2018-01-27T05:05:11.624Z,1.28
2018-01-27T05:07:40.550Z,1.25
2018-01-27T05:10:08.725Z,1.26
2018-01-27T05:12:36.889Z,1.22
2018-01-27T05:15:05.074Z,1.25
2018-01-27T05:17:33.263Z,1.28
2018-01-27T05:20:01.423Z,1.30
2018-01-27T05:22:29.641Z,1.24
2018-01-27T05:24:57.798Z,1.18
2018-01-27T05:27:25.954Z,1.24
2018-01-27T05:29:54.157Z,1.21
2018-01-27T05:32:22.340Z,1.24
2018-01-27T05:34:50.574Z,1.23
2018-01-27T05:37:18.741Z,1.23
2018-01-27T05:39:46.937Z,1.24
2018-01-27T05:42:15.131Z,1.29
2018-01-27T05:44:43.290Z,1.32
2018-01-27T05:47:11.471Z,1.35
2018-01-27T05:49:39.652Z,1.50
2018-01-27T05:52:07.825Z,1.43
2018-01-27T05:54:36.054Z,1.41
2018-01-27T05:57:04.221Z,1.34
2018-01-27T05:59:32.385Z,1.34
2018-01-27T06:02:01.328Z,1.30
2018-01-27T06:04:29.495Z,1.28
2018-01-27T06:06:57.698Z,1.25
2018-01-27T06:09:25.869Z,1.29
2018-01-27T06:11:54.102Z,1.39
2018-01-27T06:14:22.290Z,1.44
2018-01-27T06:16:50.534Z,1.39
2018-01-27T06:19:18.728Z,1.36
2018-01-27T06:21:46.913Z,1.39
2018-01-27T06:24:15.093Z,1.38
2018-01-27T06:26:43.250Z,1.36
2018-01-27T06:29:11.405Z,1.42
2018-01-27T06:31:39.562Z,1.38
2018-01-27T06:34:08.491Z,1.36
2018-01-27T06:36:36.663Z,1.38
2018-01-27T06:39:04.886Z,1.41
2018-01-27T06:41:33.050Z,1.48
2018-01-27T06:44:01.211Z,1.45
2018-01-27T06:46:29.373Z,1.46
2018-01-27T06:48:57.545Z,1.41
2018-01-27T06:51:25.713Z,1.41
2018-01-27T06:53:53.882Z,1.45
2018-01-27T06:56:22.040Z,1.49
2018-01-27T06:58:50.211Z,1.59
2018-01-27T07:01:19.129Z,1.56
2018-01-27T07:03:47.306Z,1.57
2018-01-27T07:06:15.477Z,1.54
2018-01-27T07:08:43.645Z,1.56
2018-01-27T07:11:11.815Z,1.59
2018-01-27T07:13:39.982Z,1.68
2018-01-27T07:16:08.226Z,1.77
2018-01-27T07:18:36.413Z,1.75
2018-01-27T07:21:07.236Z,1.75
2018-01-27T07:23:35.400Z,1.79
2018-01-27T07:26:03.557Z,1.77
2018-01-27T07:28:31.718Z,1.77
2018-01-27T07:30:59.905Z,1.83
2018-01-27T07:33:28.072Z,1.93
2018-01-27T07:35:56.232Z,1.94
2018-01-27T07:38:24.409Z,1.95
2018-01-27T07:40:52.581Z,2.01
2018-01-27T07:43:20.750Z,2.02
2018-01-27T07:45:48.928Z,2.11
2018-01-27T07:48:17.120Z,2.21
2018-01-27T07:50:45.304Z,2.26
2018-01-27T07:53:13.475Z,2.30
2018-01-27T07:55:41.642Z,2.23
2018-01-27T07:58:09.816Z,2.22
2018-01-27T08:00:38.430Z,2.22
2018-01-27T08:03:06.596Z,2.20
2018-01-27T08:05:34.794Z,2.23
2018-01-27T08:08:03.742Z,2.36
2018-01-27T08:10:31.942Z,2.26
2018-01-27T08:13:00.104Z,2.26
2018-01-27T08:15:28.289Z,2.25
2018-01-27T08:17:56.496Z,2.28
2018-01-27T08:20:25.439Z,2.38
2018-01-27T08:22:53.600Z,2.40
2018-01-27T08:25:21.764Z,2.40
2018-01-27T08:27:49.924Z,2.38
2018-01-27T08:30:18.715Z,2.43
2018-01-27T08:32:46.933Z,2.46
2018-01-27T08:35:15.095Z,2.43
2018-01-27T08:37:43.271Z,2.57
2018-01-27T08:40:11.464Z,2.64
2018-01-27T08:42:39.625Z,2.64
2018-01-27T08:45:07.804Z,2.58
2018-01-27T08:47:35.996Z,2.65
2018-01-27T08:50:04.182Z,2.65
2018-01-27T08:52:32.392Z,2.73
2018-01-27T08:55:00.580Z,2.68
2018-01-27T08:57:28.740Z,2.65
2018-01-27T09:00:08.307Z,2.69
2018-01-27T09:02:37.326Z,2.66
2018-01-27T09:05:05.497Z,2.66
2018-01-27T09:07:33.694Z,2.63
2018-01-27T09:10:01.859Z,2.61
2018-01-27T09:12:30.024Z,2.80
2018-01-27T09:14:58.246Z,2.74
2018-01-27T09:17:27.200Z,2.73
2018-01-27T09:19:55.389Z,2.77
2018-01-27T09:22:23.559Z,2.86
2018-01-27T09:24:51.778Z,2.89
2018-01-27T09:27:20.711Z,2.93
2018-01-27T09:29:49.559Z,2.98
2018-01-27T09:32:17.738Z,3.08
2018-01-27T09:34:46.682Z,3.08
2018-01-27T09:37:14.847Z,3.18
2018-01-27T09:39:43.027Z,3.17
2018-01-27T09:42:11.207Z,3.21
2018-01-27T09:44:44.832Z,3.34
2018-01-27T09:47:16.052Z,3.32
2018-01-27T09:49:46.654Z,3.31
2018-01-27T09:52:15.698Z,3.40
2018-01-27T09:54:44.215Z,3.28
2018-01-27T09:57:12.388Z,3.45
2018-01-27T09:59:40.560Z,3.36
2018-01-27T10:02:09.525Z,3.33
2018-01-27T10:04:37.700Z,3.43
2018-01-27T10:07:05.872Z,3.50
2018-01-27T10:09:34.168Z,3.43
2018-01-27T10:12:03.107Z,3.58
2018-01-27T10:14:31.276Z,3.55
2018-01-27T10:16:59.459Z,3.61
2018-01-27T10:19:27.634Z,3.57
2018-01-27T10:21:55.830Z,3.55
2018-01-27T10:24:24.036Z,3.57
2018-01-27T10:26:53.004Z,3.57
2018-01-27T10:29:21.173Z,3.59
2018-01-27T10:31:49.617Z,3.62
2018-01-27T10:34:17.789Z,3.68
2018-01-27T10:36:45.973Z,3.71
2018-01-27T10:39:14.195Z,3.78
2018-01-27T10:41:42.365Z,3.71
2018-01-27T10:44:10.541Z,3.73
2018-01-27T10:46:38.725Z,3.85
2018-01-27T10:49:08.397Z,3.76
2018-01-27T10:51:36.583Z,3.85
2018-01-27T10:54:04.760Z,3.77
2018-01-27T10:56:32.928Z,3.78
2018-01-27T10:59:01.098Z,3.79
2018-01-27T11:01:29.380Z,3.82
2018-01-27T11:03:57.598Z,3.91
2018-01-27T11:06:26.563Z,3.81
2018-01-27T11:08:54.739Z,3.88
2018-01-27T11:11:22.916Z,3.87
2018-01-27T11:13:51.106Z,3.83
2018-01-27T11:16:20.057Z,3.80
2018-01-27T11:18:48.241Z,3.80
2018-01-27T11:21:16.411Z,3.89
2018-01-27T11:23:44.590Z,3.96
2018-01-27T11:26:12.769Z,3.96
2018-01-27T11:28:40.940Z,4.06
2018-01-27T11:31:09.126Z,3.96
2018-01-27T11:33:37.325Z,3.97
2018-01-27T11:36:06.263Z,3.96
2018-01-27T11:38:34.445Z,3.91
2018-01-27T11:41:02.629Z,3.97
2018-01-27T11:43:30.803Z,4.01
2018-01-27T11:45:58.995Z,4.15
2018-01-27T11:48:27.175Z,4.10
2018-01-27T11:50:55.346Z,4.08
2018-01-27T11:53:23.528Z,4.05
2018-01-27T11:55:51.743Z,4.05
2018-01-27T11:58:19.953Z,4.08
2018-01-27T12:00:48.127Z,4.03
2018-01-27T12:03:16.329Z,4.01
2018-01-27T12:05:44.601Z,3.96
2018-01-27T12:08:12.773Z,4.02
2018-01-27T12:10:40.973Z,3.90
2018-01-27T12:13:09.919Z,3.86
2018-01-27T12:15:38.097Z,3.88
2018-01-27T12:18:06.266Z,3.98
2018-01-27T12:20:34.469Z,4.05
2018-01-27T12:23:02.643Z,4.02
2018-01-27T12:25:30.819Z,3.99
2018-01-27T12:27:59.077Z,3.85
2018-01-27T12:30:27.234Z,3.80
2018-01-27T12:32:55.410Z,3.91
2018-01-27T12:35:23.647Z,3.84
2018-01-27T12:37:51.866Z,3.79
2018-01-27T12:40:20.074Z,3.98
2018-01-27T12:42:49.045Z,3.89
2018-01-27T12:45:17.223Z,3.89
2018-01-27T12:47:45.405Z,3.93
2018-01-27T12:50:13.588Z,3.84
2018-01-27T12:52:41.775Z,3.78
2018-01-27T12:55:10.716Z,3.78
2018-01-27T12:57:38.889Z,3.75
2018-01-27T13:00:07.126Z,3.73
2018-01-27T13:02:36.061Z,3.68
2018-01-27T13:05:04.296Z,3.60
2018-01-27T13:07:32.492Z,3.67
2018-01-27T13:10:00.684Z,3.64
2018-01-27T13:12:28.882Z,3.44
2018-01-27T13:14:57.062Z,3.43
2018-01-27T13:17:25.259Z,3.42
2018-01-27T13:19:54.206Z,3.45
2018-01-27T13:22:22.379Z,3.48
2018-01-27T13:24:51.329Z,3.50
2018-01-27T13:27:19.548Z,3.50
2018-01-27T13:29:47.770Z,3.51
2018-01-27T13:32:16.716Z,3.45
2018-01-27T13:34:44.906Z,3.40
2018-01-27T13:37:13.072Z,3.50
2018-01-27T13:39:41.259Z,3.43
2018-01-27T13:42:09.434Z,3.33
2018-01-27T13:44:37.622Z,3.40
2018-01-27T13:47:05.811Z,3.29
2018-01-27T13:49:34.784Z,3.32
2018-01-27T13:52:02.988Z,3.24
2018-01-27T13:54:31.928Z,3.03
2018-01-27T13:57:00.125Z,3.03
2018-01-27T13:59:28.463Z,3.13
2018-01-27T14:01:57.318Z,3.14
2018-01-27T14:04:26.267Z,3.23
2018-01-27T14:06:54.439Z,3.24
2018-01-27T14:09:22.609Z,3.27
2018-01-27T14:11:51.550Z,3.25
2018-01-27T14:14:20.498Z,3.15
2018-01-27T14:16:48.710Z,3.13
2018-01-27T14:19:17.662Z,3.11
2018-01-27T14:21:46.596Z,3.14
2018-01-27T14:24:15.640Z,3.18
2018-01-27T14:26:43.840Z,3.07
2018-01-27T14:29:12.042Z,3.03
2018-01-27T14:31:40.269Z,2.95
2018-01-27T14:34:08.434Z,2.89
2018-01-27T14:36:40.450Z,2.74
2018-01-27T14:39:09.430Z,2.85
2018-01-27T14:41:37.667Z,2.77
2018-01-27T14:44:05.848Z,2.73
2018-01-27T14:46:34.082Z,2.81
2018-01-27T14:49:03.114Z,2.97
2018-01-27T14:51:31.283Z,3.02
2018-01-27T14:53:59.481Z,2.96
2018-01-27T14:56:27.675Z,2.92
2018-01-27T14:58:55.854Z,2.87
2018-01-27T15:01:24.062Z,2.90
2018-01-27T15:03:53.005Z,2.89
2018-01-27T15:06:21.192Z,2.87
2018-01-27T15:08:49.370Z,2.84
2018-01-27T15:11:17.585Z,2.85
2018-01-27T15:13:45.778Z,2.87
2018-01-27T15:16:13.953Z,2.98
2018-01-27T15:18:42.130Z,2.88
2018-01-27T15:21:10.406Z,2.91
2018-01-27T15:23:38.591Z,2.89
2018-01-27T15:26:06.773Z,2.77
2018-01-27T15:28:34.999Z,2.93
2018-01-27T15:31:05.377Z,2.85
2018-01-27T15:33:35.971Z,2.71
2018-01-27T15:36:04.361Z,2.63
2018-01-27T15:38:32.536Z,2.54
2018-01-27T15:41:00.727Z,2.66
2018-01-27T15:43:28.999Z,2.55
2018-01-27T15:45:57.181Z,2.58
2018-01-27T15:48:25.399Z,2.58
2018-01-27T15:50:54.348Z,2.61
2018-01-27T15:53:22.519Z,2.63
2018-01-27T15:55:50.791Z,2.70
2018-01-27T15:58:18.987Z,2.70
2018-01-27T16:00:47.175Z,2.69
2018-01-27T16:03:15.373Z,2.70
2018-01-27T16:05:44.331Z,2.72
2018-01-27T16:08:12.518Z,2.78
2018-01-27T16:10:40.725Z,2.77
2018-01-27T16:13:09.691Z,2.76
2018-01-27T16:15:37.889Z,2.79
2018-01-27T16:18:06.848Z,2.79
2018-01-27T16:20:35.055Z,2.74
2018-01-27T16:23:04.017Z,2.65
2018-01-27T16:25:32.206Z,2.66
2018-01-27T16:28:00.453Z,2.65
2018-01-27T16:30:28.712Z,2.72
2018-01-27T16:32:56.920Z,2.72
2018-01-27T16:35:25.096Z,2.68
2018-01-27T16:37:53.317Z,2.71
2018-01-27T16:40:21.510Z,2.69
2018-01-27T16:42:49.760Z,2.69
2018-01-27T16:45:18.713Z,2.71
2018-01-27T16:47:46.920Z,2.67
2018-01-27T16:50:15.894Z,2.66
2018-01-27T16:52:44.098Z,2.70
2018-01-27T16:55:13.030Z,2.87
2018-01-27T16:57:41.211Z,2.75
2018-01-27T17:00:09.467Z,2.64
2018-01-27T17:02:37.748Z,2.61
2018-01-27T17:05:05.960Z,2.66
2018-01-27T17:07:34.165Z,2.66
2018-01-27T17:10:03.155Z,2.63
2018-01-27T17:12:32.132Z,2.64
2018-01-27T17:15:01.221Z,2.64
2018-01-27T17:17:29.401Z,2.71
2018-01-27T17:19:59.137Z,2.77
2018-01-27T17:22:28.085Z,2.83
2018-01-27T17:24:56.334Z,2.66
2018-01-27T17:27:24.546Z,2.63
2018-01-27T17:29:52.750Z,2.63
2018-01-27T17:32:21.815Z,2.63
2018-01-27T17:34:50.058Z,2.58
2018-01-27T17:37:18.248Z,2.56
2018-01-27T17:39:46.509Z,2.58
2018-01-27T17:42:14.704Z,2.55
2018-01-27T17:44:43.308Z,2.56
2018-01-27T17:47:12.053Z,2.54
2018-01-27T17:49:40.260Z,2.57
2018-01-27T17:52:09.221Z,2.61
2018-01-27T17:54:37.433Z,2.43
2018-01-27T17:57:05.608Z,2.49
2018-01-27T17:59:33.790Z,2.40
2018-01-27T18:02:02.058Z,2.36
2018-01-27T18:04:30.385Z,2.41
2018-01-27T18:06:58.625Z,2.37
2018-01-27T18:09:26.814Z,2.41
2018-01-27T18:11:55.756Z,2.39
2018-01-27T18:14:23.957Z,2.40
2018-01-27T18:16:52.147Z,2.38
2018-01-27T18:19:20.323Z,2.45
2018-01-27T18:21:49.307Z,2.47
2018-01-27T18:24:17.484Z,2.52
2018-01-27T18:26:45.665Z,2.54
2018-01-27T18:29:14.610Z,2.57
2018-01-27T18:31:42.813Z,2.55
2018-01-27T18:34:11.119Z,2.56
2018-01-27T18:36:40.074Z,2.55
2018-01-27T18:39:08.395Z,2.47
2018-01-27T18:41:37.346Z,2.51
2018-01-27T18:44:05.513Z,2.53
2018-01-27T18:46:33.688Z,2.56
2018-01-27T18:49:02.644Z,2.55
2018-01-27T18:51:31.591Z,2.56
2018-01-27T18:53:59.767Z,2.51
2018-01-27T18:56:27.958Z,2.53
2018-01-27T18:58:56.908Z,2.58
2018-01-27T19:01:25.089Z,2.56
2018-01-27T19:03:53.290Z,2.63
2018-01-27T19:06:21.458Z,2.71
2018-01-27T19:08:49.646Z,2.59
2018-01-27T19:11:17.838Z,2.47
2018-01-27T19:13:46.778Z,2.42
2018-01-27T19:16:15.737Z,2.38
2018-01-27T19:18:43.928Z,2.39
2018-01-27T19:21:12.110Z,2.42
2018-01-27T19:23:40.281Z,2.45
2018-01-27T19:26:08.469Z,2.45
2018-01-27T19:28:36.639Z,2.40
2018-01-27T19:34:49.622Z,2.49
2018-01-27T19:37:17.813Z,2.44
2018-01-27T19:39:46.759Z,2.43
2018-01-27T19:42:14.969Z,2.44
2018-01-27T19:44:43.156Z,2.46
2018-01-27T19:47:11.347Z,2.45
2018-01-27T19:49:39.522Z,2.45
2018-01-27T19:52:07.706Z,2.46
2018-01-27T19:54:35.903Z,2.49
2018-01-27T19:57:04.087Z,2.51
2018-01-27T19:59:32.290Z,2.49
2018-01-27T20:02:00.463Z,2.48
2018-01-27T20:04:28.642Z,2.50
2018-01-27T20:06:56.833Z,2.48
2018-01-27T20:09:25.823Z,2.49
2018-01-27T20:11:54.787Z,2.46
2018-01-27T20:14:22.966Z,2.45
2018-01-27T20:16:51.150Z,2.48
2018-01-27T20:19:19.323Z,2.52
2018-01-27T20:21:47.592Z,2.52
2018-01-27T20:24:18.404Z,2.53
2018-01-27T20:26:51.579Z,2.57
2018-01-27T20:29:19.773Z,2.60
2018-01-27T20:31:47.968Z,2.53
2018-01-27T20:34:16.506Z,2.51
2018-01-27T20:36:45.039Z,2.48
2018-01-27T20:39:14.147Z,2.49
2018-01-27T20:41:43.133Z,2.51
2018-01-27T20:44:11.315Z,2.50
2018-01-27T20:46:45.296Z,2.49
2018-01-27T20:49:13.716Z,2.46
2018-01-27T20:51:42.665Z,2.50
2018-01-27T20:54:10.915Z,2.48
2018-01-27T20:56:39.120Z,2.48
2018-01-27T20:59:07.324Z,2.39
2018-01-27T21:01:36.271Z,2.34
2018-01-27T21:04:04.496Z,2.34
2018-01-27T21:06:33.481Z,2.37
2018-01-27T21:09:01.970Z,2.47
2018-01-27T21:11:33.613Z,2.45
2018-01-27T21:14:01.828Z,2.44
2018-01-27T21:16:30.729Z,2.35
2018-01-27T21:19:02.951Z,2.29
2018-01-27T21:21:31.123Z,2.30
2018-01-27T21:23:59.302Z,2.30
2018-01-27T21:26:31.184Z,2.21
2018-01-27T21:28:59.876Z,2.26
2018-01-27T21:31:28.096Z,2.30
2018-01-27T21:33:56.290Z,2.27
2018-01-27T21:36:26.269Z,2.39
2018-01-27T21:38:58.121Z,2.43
2018-01-27T21:41:26.290Z,2.36
2018-01-27T21:43:54.478Z,2.34
2018-01-27T21:46:22.663Z,2.39
2018-01-27T21:48:50.847Z,2.37
2018-01-27T23:13:16.703Z,1.42
2018-01-27T23:15:45.825Z,1.58
2018-01-27T23:18:14.034Z,1.76
2018-01-27T23:20:42.211Z,1.78
2018-01-27T23:23:10.401Z,1.85
2018-01-27T23:25:39.358Z,1.83
2018-01-27T23:28:07.613Z,1.92
2018-01-27T23:30:35.797Z,1.93
2018-01-27T23:33:04.007Z,1.87
2018-01-27T23:35:32.178Z,1.82
2018-01-27T23:38:01.154Z,1.88
2018-01-27T23:40:29.364Z,1.93
2018-01-27T23:42:58.305Z,1.91
2018-01-27T23:45:26.476Z,1.99
2018-01-27T23:47:54.658Z,1.99
2018-01-27T23:50:22.863Z,1.91
2018-01-27T23:52:51.043Z,1.96
2018-01-27T23:55:19.215Z,1.93
2018-01-27T23:57:48.169Z,1.93
